sensor_id;sensor_type;location;lat;lon;timestamp;P1;durP1;ratioP1;P2;durP2;ratioP2
31238;SDS011;17871;31.584;74.450;2023-11-21T00:01:30;326.27;;;150.48;;
31238;SDS011;17871;31.584;74.450;2023-11-21T00:03:59;338.92;;;153.35;;
31238;SDS011;17871;31.584;74.450;2023-11-21T00:06:30;330.98;;;151.30;;
31238;SDS011;17871;31.584;74.450;2023-11-21T00:08:59;346.90;;;157.27;;
31238;SDS011;17871;31.584;74.450;2023-11-21T00:11:29;349.13;;;155.77;;
31238;SDS011;17871;31.584;74.450;2023-11-21T00:13:58;364.20;;;160.80;;
31238;SDS011;17871;31.584;74.450;2023-11-21T00:16:27;370.13;;;162.82;;
31238;SDS011;17871;31.584;74.450;2023-11-21T00:18:57;364.75;;;160.68;;
31238;SDS011;17871;31.584;74.450;2023-11-21T00:21:26;365.23;;;161.02;;
31238;SDS011;17871;31.584;74.450;2023-11-21T00:23:55;359.25;;;158.27;;
31238;SDS011;17871;31.584;74.450;2023-11-21T00:26:25;352.45;;;161.48;;
31238;SDS011;17871;31.584;74.450;2023-11-21T00:29:01;346.08;;;157.40;;
31238;SDS011;17871;31.584;74.450;2023-11-21T00:31:30;356.50;;;159.77;;
31238;SDS011;17871;31.584;74.450;2023-11-21T00:33:59;356.58;;;158.77;;
31238;SDS011;17871;31.584;74.450;2023-11-21T00:36:29;343.80;;;158.57;;
31238;SDS011;17871;31.584;74.450;2023-11-21T00:38:58;344.05;;;161.77;;
31238;SDS011;17871;31.584;74.450;2023-11-21T00:41:28;351.55;;;161.90;;
31238;SDS011;17871;31.584;74.450;2023-11-21T00:43:57;392.05;;;166.40;;
31238;SDS011;17871;31.584;74.450;2023-11-21T00:46:28;379.73;;;168.02;;
31238;SDS011;17871;31.584;74.450;2023-11-21T00:48:58;394.23;;;174.80;;
31238;SDS011;17871;31.584;74.450;2023-11-21T00:51:27;416.48;;;177.43;;
31238;SDS011;17871;31.584;74.450;2023-11-21T00:53:56;416.30;;;183.60;;
31238;SDS011;17871;31.584;74.450;2023-11-21T00:56:26;391.00;;;176.23;;
31238;SDS011;17871;31.584;74.450;2023-11-21T00:58:55;401.38;;;177.77;;
31238;SDS011;17871;31.584;74.450;2023-11-21T01:01:24;393.98;;;174.75;;
31238;SDS011;17871;31.584;74.450;2023-11-21T01:03:53;419.00;;;184.48;;
31238;SDS011;17871;31.584;74.450;2023-11-21T01:06:23;395.30;;;178.20;;
31238;SDS011;17871;31.584;74.450;2023-11-21T01:08:52;402.73;;;181.18;;
31238;SDS011;17871;31.584;74.450;2023-11-21T01:11:22;406.42;;;181.40;;
31238;SDS011;17871;31.584;74.450;2023-11-21T01:13:51;436.42;;;183.82;;
31238;SDS011;17871;31.584;74.450;2023-11-21T01:16:22;395.48;;;178.45;;
31238;SDS011;17871;31.584;74.450;2023-11-21T01:18:51;382.58;;;172.57;;
31238;SDS011;17871;31.584;74.450;2023-11-21T01:21:20;386.95;;;166.48;;
31238;SDS011;17871;31.584;74.450;2023-11-21T01:23:50;378.38;;;164.55;;
31238;SDS011;17871;31.584;74.450;2023-11-21T01:26:19;379.98;;;154.18;;
31238;SDS011;17871;31.584;74.450;2023-11-21T01:28:49;343.05;;;156.93;;
31238;SDS011;17871;31.584;74.450;2023-11-21T01:31:18;362.90;;;158.85;;
31238;SDS011;17871;31.584;74.450;2023-11-21T01:33:49;338.13;;;156.85;;
31238;SDS011;17871;31.584;74.450;2023-11-21T01:36:18;348.08;;;159.55;;
31238;SDS011;17871;31.584;74.450;2023-11-21T01:38:47;372.23;;;159.40;;
31238;SDS011;17871;31.584;74.450;2023-11-21T01:41:17;361.70;;;161.82;;
31238;SDS011;17871;31.584;74.450;2023-11-21T01:43:46;357.40;;;165.50;;
31238;SDS011;17871;31.584;74.450;2023-11-21T01:46:16;392.98;;;171.18;;
31238;SDS011;17871;31.584;74.450;2023-11-21T01:48:45;388.60;;;178.10;;
31238;SDS011;17871;31.584;74.450;2023-11-21T01:51:15;372.98;;;169.98;;
31238;SDS011;17871;31.584;74.450;2023-11-21T01:53:45;370.58;;;172.77;;
31238;SDS011;17871;31.584;74.450;2023-11-21T01:56:16;397.63;;;177.98;;
31238;SDS011;17871;31.584;74.450;2023-11-21T01:58:45;420.52;;;184.07;;
31238;SDS011;17871;31.584;74.450;2023-11-21T02:01:16;399.58;;;183.70;;
31238;SDS011;17871;31.584;74.450;2023-11-21T02:03:47;390.23;;;180.10;;
31238;SDS011;17871;31.584;74.450;2023-11-21T02:06:17;421.35;;;185.55;;
31238;SDS011;17871;31.584;74.450;2023-11-21T02:08:47;413.58;;;184.23;;
31238;SDS011;17871;31.584;74.450;2023-11-21T02:11:17;434.30;;;200.70;;
31238;SDS011;17871;31.584;74.450;2023-11-21T02:13:48;481.83;;;225.70;;
31238;SDS011;17871;31.584;74.450;2023-11-21T02:16:18;507.30;;;245.68;;
31238;SDS011;17871;31.584;74.450;2023-11-21T02:18:49;514.38;;;252.27;;
31238;SDS011;17871;31.584;74.450;2023-11-21T02:21:21;515.90;;;253.23;;
31238;SDS011;17871;31.584;74.450;2023-11-21T02:23:50;512.13;;;246.52;;
31238;SDS011;17871;31.584;74.450;2023-11-21T02:26:20;492.88;;;233.57;;
31238;SDS011;17871;31.584;74.450;2023-11-21T02:28:49;482.75;;;232.38;;
31238;SDS011;17871;31.584;74.450;2023-11-21T02:31:18;459.25;;;215.88;;
31238;SDS011;17871;31.584;74.450;2023-11-21T02:33:48;451.67;;;213.20;;
31238;SDS011;17871;31.584;74.450;2023-11-21T02:36:17;449.80;;;200.48;;
31238;SDS011;17871;31.584;74.450;2023-11-21T02:38:47;426.45;;;187.18;;
31238;SDS011;17871;31.584;74.450;2023-11-21T02:41:16;433.88;;;190.93;;
31238;SDS011;17871;31.584;74.450;2023-11-21T02:43:45;394.45;;;179.85;;
31238;SDS011;17871;31.584;74.450;2023-11-21T02:46:15;390.25;;;174.18;;
31238;SDS011;17871;31.584;74.450;2023-11-21T02:48:44;402.67;;;173.73;;
31238;SDS011;17871;31.584;74.450;2023-11-21T02:51:13;373.10;;;169.88;;
31238;SDS011;17871;31.584;74.450;2023-11-21T02:53:44;373.02;;;172.18;;
31238;SDS011;17871;31.584;74.450;2023-11-21T02:56:15;377.55;;;168.95;;
31238;SDS011;17871;31.584;74.450;2023-11-21T02:58:44;377.73;;;168.13;;
31238;SDS011;17871;31.584;74.450;2023-11-21T03:01:13;368.33;;;169.77;;
31238;SDS011;17871;31.584;74.450;2023-11-21T03:03:43;382.05;;;176.27;;
31238;SDS011;17871;31.584;74.450;2023-11-21T03:06:12;363.75;;;168.52;;
31238;SDS011;17871;31.584;74.450;2023-11-21T03:08:42;366.30;;;171.90;;
31238;SDS011;17871;31.584;74.450;2023-11-21T03:11:11;371.10;;;167.48;;
31238;SDS011;17871;31.584;74.450;2023-11-21T03:13:41;379.98;;;165.82;;
31238;SDS011;17871;31.584;74.450;2023-11-21T03:16:12;376.10;;;166.25;;
31238;SDS011;17871;31.584;74.450;2023-11-21T03:18:42;367.52;;;167.70;;
31238;SDS011;17871;31.584;74.450;2023-11-21T03:21:12;370.60;;;168.98;;
31238;SDS011;17871;31.584;74.450;2023-11-21T03:23:41;385.08;;;168.38;;
31238;SDS011;17871;31.584;74.450;2023-11-21T03:26:14;366.45;;;159.60;;
31238;SDS011;17871;31.584;74.450;2023-11-21T03:28:44;366.90;;;155.90;;
31238;SDS011;17871;31.584;74.450;2023-11-21T03:31:15;337.08;;;148.15;;
31238;SDS011;17871;31.584;74.450;2023-11-21T03:33:46;328.55;;;148.68;;
31238;SDS011;17871;31.584;74.450;2023-11-21T03:36:17;335.70;;;139.35;;
31238;SDS011;17871;31.584;74.450;2023-11-21T03:38:47;313.02;;;140.77;;
31238;SDS011;17871;31.584;74.450;2023-11-21T03:41:17;340.23;;;148.30;;
31238;SDS011;17871;31.584;74.450;2023-11-21T03:43:47;310.85;;;137.27;;
31238;SDS011;17871;31.584;74.450;2023-11-21T03:46:16;286.63;;;130.88;;
31238;SDS011;17871;31.584;74.450;2023-11-21T03:48:46;299.50;;;132.80;;
31238;SDS011;17871;31.584;74.450;2023-11-21T03:51:15;282.88;;;129.88;;
31238;SDS011;17871;31.584;74.450;2023-11-21T03:53:44;284.95;;;130.52;;
31238;SDS011;17871;31.584;74.450;2023-11-21T03:56:14;260.63;;;117.68;;
31238;SDS011;17871;31.584;74.450;2023-11-21T03:58:43;254.35;;;116.82;;
31238;SDS011;17871;31.584;74.450;2023-11-21T04:01:18;256.45;;;122.18;;
31238;SDS011;17871;31.584;74.450;2023-11-21T04:03:49;279.25;;;129.25;;
31238;SDS011;17871;31.584;74.450;2023-11-21T04:06:19;278.55;;;120.85;;
31238;SDS011;17871;31.584;74.450;2023-11-21T04:08:49;276.35;;;123.85;;
31238;SDS011;17871;31.584;74.450;2023-11-21T04:11:18;282.45;;;126.18;;
31238;SDS011;17871;31.584;74.450;2023-11-21T04:13:47;287.80;;;135.65;;
31238;SDS011;17871;31.584;74.450;2023-11-21T04:16:17;297.27;;;137.50;;
31238;SDS011;17871;31.584;74.450;2023-11-21T04:18:47;286.17;;;129.30;;
31238;SDS011;17871;31.584;74.450;2023-11-21T04:21:16;268.42;;;120.18;;
31238;SDS011;17871;31.584;74.450;2023-11-21T04:23:45;266.77;;;124.95;;
31238;SDS011;17871;31.584;74.450;2023-11-21T04:26:15;250.02;;;115.82;;
31238;SDS011;17871;31.584;74.450;2023-11-21T04:28:45;266.25;;;122.57;;
31238;SDS011;17871;31.584;74.450;2023-11-21T04:31:14;275.35;;;120.35;;
31238;SDS011;17871;31.584;74.450;2023-11-21T04:33:44;270.50;;;121.32;;
31238;SDS011;17871;31.584;74.450;2023-11-21T04:36:13;269.70;;;120.85;;
31238;SDS011;17871;31.584;74.450;2023-11-21T04:38:42;260.38;;;117.15;;
31238;SDS011;17871;31.584;74.450;2023-11-21T04:41:12;264.17;;;113.85;;
31238;SDS011;17871;31.584;74.450;2023-11-21T04:43:42;254.85;;;114.53;;
31238;SDS011;17871;31.584;74.450;2023-11-21T04:46:11;248.25;;;116.82;;
31238;SDS011;17871;31.584;74.450;2023-11-21T04:48:40;266.83;;;118.65;;
31238;SDS011;17871;31.584;74.450;2023-11-21T04:51:10;294.00;;;119.82;;
31238;SDS011;17871;31.584;74.450;2023-11-21T04:53:41;262.40;;;114.70;;
31238;SDS011;17871;31.584;74.450;2023-11-21T04:56:11;252.32;;;110.03;;
31238;SDS011;17871;31.584;74.450;2023-11-21T04:58:40;229.82;;;108.45;;
31238;SDS011;17871;31.584;74.450;2023-11-21T05:01:10;225.88;;;105.78;;
31238;SDS011;17871;31.584;74.450;2023-11-21T05:03:39;217.30;;;103.07;;
31238;SDS011;17871;31.584;74.450;2023-11-21T05:06:12;207.43;;;95.75;;
31238;SDS011;17871;31.584;74.450;2023-11-21T05:08:42;215.38;;;94.90;;
31238;SDS011;17871;31.584;74.450;2023-11-21T05:11:12;194.02;;;95.25;;
31238;SDS011;17871;31.584;74.450;2023-11-21T05:13:41;187.95;;;90.35;;
31238;SDS011;17871;31.584;74.450;2023-11-21T05:16:10;183.30;;;87.70;;
31238;SDS011;17871;31.584;74.450;2023-11-21T05:18:41;165.48;;;87.35;;
31238;SDS011;17871;31.584;74.450;2023-11-21T05:21:10;199.27;;;90.05;;
31238;SDS011;17871;31.584;74.450;2023-11-21T05:23:44;180.15;;;81.55;;
31238;SDS011;17871;31.584;74.450;2023-11-21T05:28:54;181.73;;;82.07;;
31238;SDS011;17871;31.584;74.450;2023-11-21T05:31:23;182.82;;;84.38;;
31238;SDS011;17871;31.584;74.450;2023-11-21T05:33:52;170.77;;;80.47;;
31238;SDS011;17871;31.584;74.450;2023-11-21T05:36:22;186.07;;;82.63;;
31238;SDS011;17871;31.584;74.450;2023-11-21T05:38:51;173.90;;;85.53;;
31238;SDS011;17871;31.584;74.450;2023-11-21T05:41:21;166.80;;;75.90;;
31238;SDS011;17871;31.584;74.450;2023-11-21T05:43:50;158.93;;;73.55;;
31238;SDS011;17871;31.584;74.450;2023-11-21T05:46:19;149.50;;;73.03;;
31238;SDS011;17871;31.584;74.450;2023-11-21T05:48:49;148.43;;;71.40;;
31238;SDS011;17871;31.584;74.450;2023-11-21T05:51:18;149.63;;;73.05;;
31238;SDS011;17871;31.584;74.450;2023-11-21T05:53:47;155.38;;;72.68;;
31238;SDS011;17871;31.584;74.450;2023-11-21T05:56:17;141.10;;;67.85;;
31238;SDS011;17871;31.584;74.450;2023-11-21T05:58:46;134.20;;;68.85;;
31238;SDS011;17871;31.584;74.450;2023-11-21T06:01:16;129.32;;;64.65;;
31238;SDS011;17871;31.584;74.450;2023-11-21T06:03:45;133.48;;;65.22;;
31238;SDS011;17871;31.584;74.450;2023-11-21T06:06:14;172.20;;;65.97;;
31238;SDS011;17871;31.584;74.450;2023-11-21T06:08:44;145.70;;;67.10;;
31238;SDS011;17871;31.584;74.450;2023-11-21T06:11:13;145.80;;;64.35;;
31238;SDS011;17871;31.584;74.450;2023-11-21T06:13:43;127.97;;;63.65;;
31238;SDS011;17871;31.584;74.450;2023-11-21T06:16:12;137.43;;;64.07;;
31238;SDS011;17871;31.584;74.450;2023-11-21T06:21:13;137.38;;;61.47;;
31238;SDS011;17871;31.584;74.450;2023-11-21T06:23:45;133.60;;;64.10;;
31238;SDS011;17871;31.584;74.450;2023-11-21T06:28:47;142.63;;;62.38;;
31238;SDS011;17871;31.584;74.450;2023-11-21T06:31:17;143.00;;;66.38;;
31238;SDS011;17871;31.584;74.450;2023-11-21T06:33:46;146.55;;;68.43;;
31238;SDS011;17871;31.584;74.450;2023-11-21T06:36:16;140.88;;;70.93;;
31238;SDS011;17871;31.584;74.450;2023-11-21T06:38:45;161.45;;;75.70;;
31238;SDS011;17871;31.584;74.450;2023-11-21T06:41:14;210.82;;;81.07;;
31238;SDS011;17871;31.584;74.450;2023-11-21T06:43:44;149.55;;;75.95;;
31238;SDS011;17871;31.584;74.450;2023-11-21T06:46:16;155.18;;;74.30;;
31238;SDS011;17871;31.584;74.450;2023-11-21T06:48:46;190.07;;;79.53;;
31238;SDS011;17871;31.584;74.450;2023-11-21T06:51:20;150.57;;;76.70;;
31238;SDS011;17871;31.584;74.450;2023-11-21T06:53:50;172.15;;;75.43;;
31238;SDS011;17871;31.584;74.450;2023-11-21T06:56:19;160.27;;;74.80;;
31238;SDS011;17871;31.584;74.450;2023-11-21T06:58:49;143.43;;;73.53;;
31238;SDS011;17871;31.584;74.450;2023-11-21T07:01:22;133.48;;;69.93;;
31238;SDS011;17871;31.584;74.450;2023-11-21T07:03:53;148.70;;;72.13;;
31238;SDS011;17871;31.584;74.450;2023-11-21T07:06:23;161.60;;;80.18;;
31238;SDS011;17871;31.584;74.450;2023-11-21T07:08:56;158.40;;;79.93;;
31238;SDS011;17871;31.584;74.450;2023-11-21T07:11:35;162.65;;;75.25;;
31238;SDS011;17871;31.584;74.450;2023-11-21T07:14:08;163.40;;;73.50;;
31238;SDS011;17871;31.584;74.450;2023-11-21T07:16:38;165.50;;;74.40;;
31238;SDS011;17871;31.584;74.450;2023-11-21T07:19:07;153.93;;;73.93;;
31238;SDS011;17871;31.584;74.450;2023-11-21T07:21:37;148.45;;;74.68;;
31238;SDS011;17871;31.584;74.450;2023-11-21T07:24:07;151.20;;;69.88;;
31238;SDS011;17871;31.584;74.450;2023-11-21T07:26:37;146.80;;;69.35;;
31238;SDS011;17871;31.584;74.450;2023-11-21T07:29:08;152.07;;;67.93;;
31238;SDS011;17871;31.584;74.450;2023-11-21T07:31:38;135.30;;;65.43;;
31238;SDS011;17871;31.584;74.450;2023-11-21T07:34:08;118.43;;;61.80;;
31238;SDS011;17871;31.584;74.450;2023-11-21T07:36:38;116.03;;;62.85;;
31238;SDS011;17871;31.584;74.450;2023-11-21T07:39:07;127.68;;;65.15;;
31238;SDS011;17871;31.584;74.450;2023-11-21T07:41:37;123.80;;;62.78;;
31238;SDS011;17871;31.584;74.450;2023-11-21T07:44:18;140.60;;;64.55;;
31238;SDS011;17871;31.584;74.450;2023-11-21T07:46:48;156.63;;;63.83;;
31238;SDS011;17871;31.584;74.450;2023-11-21T07:49:30;116.88;;;59.80;;
31238;SDS011;17871;31.584;74.450;2023-11-21T07:52:05;122.72;;;60.95;;
31238;SDS011;17871;31.584;74.450;2023-11-21T07:54:34;145.57;;;66.72;;
31238;SDS011;17871;31.584;74.450;2023-11-21T07:57:04;123.88;;;60.67;;
31238;SDS011;17871;31.584;74.450;2023-11-21T07:59:33;123.35;;;61.55;;
31238;SDS011;17871;31.584;74.450;2023-11-21T08:02:05;120.97;;;61.23;;
31238;SDS011;17871;31.584;74.450;2023-11-21T08:04:35;226.70;;;65.03;;
31238;SDS011;17871;31.584;74.450;2023-11-21T08:07:04;133.55;;;69.25;;
31238;SDS011;17871;31.584;74.450;2023-11-21T08:09:37;128.45;;;65.18;;
31238;SDS011;17871;31.584;74.450;2023-11-21T08:12:06;128.90;;;62.13;;
31238;SDS011;17871;31.584;74.450;2023-11-21T08:14:36;128.02;;;64.35;;
31238;SDS011;17871;31.584;74.450;2023-11-21T08:17:08;132.07;;;65.60;;
31238;SDS011;17871;31.584;74.450;2023-11-21T08:19:41;120.90;;;62.10;;
31238;SDS011;17871;31.584;74.450;2023-11-21T08:22:10;114.88;;;63.17;;
31238;SDS011;17871;31.584;74.450;2023-11-21T08:24:40;138.38;;;65.70;;
31238;SDS011;17871;31.584;74.450;2023-11-21T08:27:09;145.65;;;65.80;;
31238;SDS011;17871;31.584;74.450;2023-11-21T08:29:39;118.70;;;62.85;;
31238;SDS011;17871;31.584;74.450;2023-11-21T08:32:08;121.75;;;63.67;;
31238;SDS011;17871;31.584;74.450;2023-11-21T08:34:38;134.13;;;67.90;;
31238;SDS011;17871;31.584;74.450;2023-11-21T08:37:08;128.93;;;64.50;;
31238;SDS011;17871;31.584;74.450;2023-11-21T08:39:39;123.88;;;62.22;;
31238;SDS011;17871;31.584;74.450;2023-11-21T08:42:13;124.45;;;61.53;;
31238;SDS011;17871;31.584;74.450;2023-11-21T08:44:43;127.35;;;58.45;;
31238;SDS011;17871;31.584;74.450;2023-11-21T08:47:13;102.97;;;55.78;;
31238;SDS011;17871;31.584;74.450;2023-11-21T08:49:42;123.47;;;61.88;;
31238;SDS011;17871;31.584;74.450;2023-11-21T08:52:12;131.50;;;63.05;;
31238;SDS011;17871;31.584;74.450;2023-11-21T08:54:43;139.47;;;63.53;;
31238;SDS011;17871;31.584;74.450;2023-11-21T08:57:14;131.10;;;64.53;;
31238;SDS011;17871;31.584;74.450;2023-11-21T08:59:44;123.47;;;61.25;;
31238;SDS011;17871;31.584;74.450;2023-11-21T09:02:13;120.40;;;62.83;;
31238;SDS011;17871;31.584;74.450;2023-11-21T09:04:43;113.70;;;58.30;;
31238;SDS011;17871;31.584;74.450;2023-11-21T09:07:14;113.55;;;56.55;;
31238;SDS011;17871;31.584;74.450;2023-11-21T09:09:44;127.25;;;62.03;;
31238;SDS011;17871;31.584;74.450;2023-11-21T09:12:20;117.63;;;61.20;;
31238;SDS011;17871;31.584;74.450;2023-11-21T09:14:49;127.50;;;62.92;;
31238;SDS011;17871;31.584;74.450;2023-11-21T09:17:19;125.20;;;65.15;;
31238;SDS011;17871;31.584;74.450;2023-11-21T09:19:49;117.95;;;62.22;;
31238;SDS011;17871;31.584;74.450;2023-11-21T09:22:22;127.30;;;65.20;;
31238;SDS011;17871;31.584;74.450;2023-11-21T09:24:54;116.25;;;61.47;;
31238;SDS011;17871;31.584;74.450;2023-11-21T09:27:29;120.05;;;61.30;;
31238;SDS011;17871;31.584;74.450;2023-11-21T09:29:59;220.55;;;67.78;;
31238;SDS011;17871;31.584;74.450;2023-11-21T09:32:32;217.25;;;67.65;;
31238;SDS011;17871;31.584;74.450;2023-11-21T09:35:02;131.85;;;66.40;;
31238;SDS011;17871;31.584;74.450;2023-11-21T09:37:37;112.80;;;60.45;;
31238;SDS011;17871;31.584;74.450;2023-11-21T09:40:10;111.80;;;59.05;;
31238;SDS011;17871;31.584;74.450;2023-11-21T09:42:54;142.75;;;58.47;;
31238;SDS011;17871;31.584;74.450;2023-11-21T09:45:26;120.10;;;62.97;;
31238;SDS011;17871;31.584;74.450;2023-11-21T09:47:57;155.73;;;61.13;;
31238;SDS011;17871;31.584;74.450;2023-11-21T09:55:55;111.30;;;58.05;;
31238;SDS011;17871;31.584;74.450;2023-11-21T09:58:25;113.15;;;55.75;;
31238;SDS011;17871;31.584;74.450;2023-11-21T10:01:01;107.03;;;55.67;;
31238;SDS011;17871;31.584;74.450;2023-11-21T10:03:35;104.70;;;55.17;;
31238;SDS011;17871;31.584;74.450;2023-11-21T10:06:09;113.43;;;55.45;;
31238;SDS011;17871;31.584;74.450;2023-11-21T10:08:41;111.00;;;55.80;;
31238;SDS011;17871;31.584;74.450;2023-11-21T10:11:27;114.82;;;58.42;;
31238;SDS011;17871;31.584;74.450;2023-11-21T10:13:59;115.82;;;56.40;;
31238;SDS011;17871;31.584;74.450;2023-11-21T10:16:30;112.30;;;57.53;;
31238;SDS011;17871;31.584;74.450;2023-11-21T10:19:01;123.68;;;57.80;;
31238;SDS011;17871;31.584;74.450;2023-11-21T10:21:38;106.78;;;55.95;;
31238;SDS011;17871;31.584;74.450;2023-11-21T10:24:08;102.72;;;54.38;;
31238;SDS011;17871;31.584;74.450;2023-11-21T10:26:38;103.05;;;54.40;;
31238;SDS011;17871;31.584;74.450;2023-11-21T10:29:19;125.82;;;60.65;;
31238;SDS011;17871;31.584;74.450;2023-11-21T10:31:53;115.32;;;55.58;;
31238;SDS011;17871;31.584;74.450;2023-11-21T10:34:28;143.48;;;60.22;;
31238;SDS011;17871;31.584;74.450;2023-11-21T10:36:57;105.82;;;54.72;;
31238;SDS011;17871;31.584;74.450;2023-11-21T10:39:36;121.05;;;59.97;;
31238;SDS011;17871;31.584;74.450;2023-11-21T10:42:08;115.30;;;56.58;;
31238;SDS011;17871;31.584;74.450;2023-11-21T10:44:38;107.57;;;57.10;;
31238;SDS011;17871;31.584;74.450;2023-11-21T10:49:40;107.38;;;53.75;;
31238;SDS011;17871;31.584;74.450;2023-11-21T10:52:11;135.85;;;57.90;;
31238;SDS011;17871;31.584;74.450;2023-11-21T10:54:46;115.03;;;55.30;;
31238;SDS011;17871;31.584;74.450;2023-11-21T10:57:17;100.63;;;51.45;;
31238;SDS011;17871;31.584;74.450;2023-11-21T10:59:47;95.95;;;50.83;;
31238;SDS011;17871;31.584;74.450;2023-11-21T11:02:22;99.63;;;52.10;;
31238;SDS011;17871;31.584;74.450;2023-11-21T11:04:54;108.10;;;52.10;;
31238;SDS011;17871;31.584;74.450;2023-11-21T11:07:27;100.50;;;51.92;;
31238;SDS011;17871;31.584;74.450;2023-11-21T11:10:12;131.02;;;53.40;;
31238;SDS011;17871;31.584;74.450;2023-11-21T11:12:43;128.65;;;54.63;;
31238;SDS011;17871;31.584;74.450;2023-11-21T11:15:18;105.57;;;51.88;;
31238;SDS011;17871;31.584;74.450;2023-11-21T11:17:48;134.90;;;56.70;;
31238;SDS011;17871;31.584;74.450;2023-11-21T11:20:18;111.60;;;55.58;;
31238;SDS011;17871;31.584;74.450;2023-11-21T11:23:14;121.75;;;56.85;;
31238;SDS011;17871;31.584;74.450;2023-11-21T11:31:26;128.68;;;61.55;;
31238;SDS011;17871;31.584;74.450;2023-11-21T11:36:59;141.48;;;67.07;;
31238;SDS011;17871;31.584;74.450;2023-11-21T11:39:39;136.52;;;66.55;;
31238;SDS011;17871;31.584;74.450;2023-11-21T11:42:13;162.23;;;71.00;;
31238;SDS011;17871;31.584;74.450;2023-11-21T11:47:24;164.85;;;74.13;;
31238;SDS011;17871;31.584;74.450;2023-11-21T11:49:56;168.07;;;72.20;;
31238;SDS011;17871;31.584;74.450;2023-11-21T11:52:32;143.15;;;67.10;;
31238;SDS011;17871;31.584;74.450;2023-11-21T11:55:03;147.18;;;65.85;;
31238;SDS011;17871;31.584;74.450;2023-11-21T11:57:34;146.05;;;65.70;;
31238;SDS011;17871;31.584;74.450;2023-11-21T12:00:11;151.32;;;66.75;;
31238;SDS011;17871;31.584;74.450;2023-11-21T12:02:45;152.55;;;67.50;;
31238;SDS011;17871;31.584;74.450;2023-11-21T12:05:16;148.60;;;66.70;;
31238;SDS011;17871;31.584;74.450;2023-11-21T12:07:50;141.82;;;67.63;;
31238;SDS011;17871;31.584;74.450;2023-11-21T12:10:27;140.75;;;65.90;;
31238;SDS011;17871;31.584;74.450;2023-11-21T12:13:00;156.40;;;66.18;;
31238;SDS011;17871;31.584;74.450;2023-11-21T12:15:30;161.23;;;69.57;;
31238;SDS011;17871;31.584;74.450;2023-11-21T12:18:00;171.15;;;72.88;;
31238;SDS011;17871;31.584;74.450;2023-11-21T12:20:30;194.20;;;70.90;;
31238;SDS011;17871;31.584;74.450;2023-11-21T12:22:59;155.88;;;65.47;;
31238;SDS011;17871;31.584;74.450;2023-11-21T12:25:31;172.95;;;73.40;;
31238;SDS011;17871;31.584;74.450;2023-11-21T12:28:02;214.88;;;81.32;;
31238;SDS011;17871;31.584;74.450;2023-11-21T12:30:32;189.57;;;76.00;;
31238;SDS011;17871;31.584;74.450;2023-11-21T12:33:11;174.52;;;78.57;;
31238;SDS011;17871;31.584;74.450;2023-11-21T12:35:46;160.52;;;70.05;;
31238;SDS011;17871;31.584;74.450;2023-11-21T12:38:15;166.63;;;76.22;;
31238;SDS011;17871;31.584;74.450;2023-11-21T12:40:47;165.32;;;74.90;;
31238;SDS011;17871;31.584;74.450;2023-11-21T12:43:16;169.82;;;77.55;;
31238;SDS011;17871;31.584;74.450;2023-11-21T12:45:48;182.73;;;78.40;;
31238;SDS011;17871;31.584;74.450;2023-11-21T12:48:18;169.43;;;79.07;;
31238;SDS011;17871;31.584;74.450;2023-11-21T12:50:53;197.60;;;83.35;;
31238;SDS011;17871;31.584;74.450;2023-11-21T12:53:22;183.82;;;83.03;;
31238;SDS011;17871;31.584;74.450;2023-11-21T12:55:51;191.82;;;84.18;;
31238;SDS011;17871;31.584;74.450;2023-11-21T12:58:20;187.18;;;85.03;;
31238;SDS011;17871;31.584;74.450;2023-11-21T13:00:51;190.82;;;81.13;;
31238;SDS011;17871;31.584;74.450;2023-11-21T13:03:22;177.93;;;81.55;;
31238;SDS011;17871;31.584;74.450;2023-11-21T13:05:55;195.70;;;80.93;;
31238;SDS011;17871;31.584;74.450;2023-11-21T13:08:25;215.27;;;95.90;;
31238;SDS011;17871;31.584;74.450;2023-11-21T13:10:55;223.38;;;91.90;;
31238;SDS011;17871;31.584;74.450;2023-11-21T13:13:27;206.43;;;93.53;;
31238;SDS011;17871;31.584;74.450;2023-11-21T13:15:58;183.02;;;87.63;;
31238;SDS011;17871;31.584;74.450;2023-11-21T13:18:34;194.25;;;88.78;;
31238;SDS011;17871;31.584;74.450;2023-11-21T13:21:04;175.32;;;80.15;;
31238;SDS011;17871;31.584;74.450;2023-11-21T13:23:40;206.00;;;85.57;;
31238;SDS011;17871;31.584;74.450;2023-11-21T13:26:10;197.25;;;82.47;;
31238;SDS011;17871;31.584;74.450;2023-11-21T13:28:41;178.32;;;81.65;;
31238;SDS011;17871;31.584;74.450;2023-11-21T13:31:15;169.48;;;80.43;;
31238;SDS011;17871;31.584;74.450;2023-11-21T13:33:54;197.20;;;87.60;;
31238;SDS011;17871;31.584;74.450;2023-11-21T13:36:33;210.63;;;89.78;;
31238;SDS011;17871;31.584;74.450;2023-11-21T13:39:04;199.40;;;89.00;;
31238;SDS011;17871;31.584;74.450;2023-11-21T13:41:36;201.95;;;88.75;;
31238;SDS011;17871;31.584;74.450;2023-11-21T13:44:07;193.43;;;88.18;;
31238;SDS011;17871;31.584;74.450;2023-11-21T13:46:55;202.95;;;92.95;;
31238;SDS011;17871;31.584;74.450;2023-11-21T13:49:27;221.57;;;93.30;;
31238;SDS011;17871;31.584;74.450;2023-11-21T13:51:59;208.88;;;93.80;;
31238;SDS011;17871;31.584;74.450;2023-11-21T13:54:29;222.18;;;96.35;;
31238;SDS011;17871;31.584;74.450;2023-11-21T13:56:59;297.13;;;121.88;;
31238;SDS011;17871;31.584;74.450;2023-11-21T13:59:28;333.58;;;140.52;;
31238;SDS011;17871;31.584;74.450;2023-11-21T14:02:05;347.73;;;142.65;;
31238;SDS011;17871;31.584;74.450;2023-11-21T14:05:01;328.55;;;134.13;;
31238;SDS011;17871;31.584;74.450;2023-11-21T14:07:38;306.02;;;123.95;;
31238;SDS011;17871;31.584;74.450;2023-11-21T14:10:08;251.48;;;111.95;;
31238;SDS011;17871;31.584;74.450;2023-11-21T14:12:43;231.25;;;108.32;;
31238;SDS011;17871;31.584;74.450;2023-11-21T14:15:12;254.98;;;103.38;;
31238;SDS011;17871;31.584;74.450;2023-11-21T14:17:45;245.45;;;106.88;;
31238;SDS011;17871;31.584;74.450;2023-11-21T14:20:15;244.80;;;104.70;;
31238;SDS011;17871;31.584;74.450;2023-11-21T14:22:44;236.75;;;103.93;;
31238;SDS011;17871;31.584;74.450;2023-11-21T14:25:14;257.52;;;101.10;;
31238;SDS011;17871;31.584;74.450;2023-11-21T14:27:43;244.63;;;103.22;;
31238;SDS011;17871;31.584;74.450;2023-11-21T14:30:13;237.13;;;101.40;;
31238;SDS011;17871;31.584;74.450;2023-11-21T14:32:44;223.88;;;99.22;;
31238;SDS011;17871;31.584;74.450;2023-11-21T14:35:15;280.98;;;110.35;;
31238;SDS011;17871;31.584;74.450;2023-11-21T14:37:45;264.95;;;115.75;;
31238;SDS011;17871;31.584;74.450;2023-11-21T14:40:15;236.15;;;103.47;;